sensor_id;sensor_type;location;lat;lon;timestamp;pressure;altitude;pressure_sealevel;temperature;humidity
23170;BME280;11753;43.144;24.714;2022-11-21T00:00:20;98416.66;;;12.21;100.00
23170;BME280;11753;43.144;24.714;2022-11-21T00:01:25;98414.44;;;12.18;100.00
23170;BME280;11753;43.144;24.714;2022-11-21T00:02:26;98410.56;;;12.20;100.00
23170;BME280;11753;43.144;24.714;2022-11-21T00:03:27;98393.94;;;12.20;100.00
23170;BME280;11753;43.144;24.714;2022-11-21T00:04:28;98397.22;;;12.22;100.00
23170;BME280;11753;43.144;24.714;2022-11-21T00:05:29;98392.34;;;12.25;100.00
23170;BME280;11753;43.144;24.714;2022-11-21T00:06:30;98391.69;;;12.17;100.00
23170;BME280;11753;43.144;24.714;2022-11-21T00:07:31;98391.50;;;12.18;100.00
23170;BME280;11753;43.144;24.714;2022-11-21T00:08:31;98401.53;;;12.01;100.00
23170;BME280;11753;43.144;24.714;2022-11-21T00:09:32;98398.75;;;11.81;100.00
23170;BME280;11753;43.144;24.714;2022-11-21T00:10:34;98397.09;;;11.59;100.00
23170;BME280;11753;43.144;24.714;2022-11-21T00:11:35;98401.44;;;11.45;100.00
23170;BME280;11753;43.144;24.714;2022-11-21T00:12:36;98405.56;;;11.54;100.00
23170;BME280;11753;43.144;24.714;2022-11-21T00:13:37;98412.97;;;11.66;100.00
23170;BME280;11753;43.144;24.714;2022-11-21T00:14:39;98408.94;;;11.70;100.00
23170;BME280;11753;43.144;24.714;2022-11-21T00:15:40;98412.84;;;11.74;100.00
23170;BME280;11753;43.144;24.714;2022-11-21T00:16:40;98416.38;;;11.81;100.00
23170;BME280;11753;43.144;24.714;2022-11-21T00:17:41;98402.81;;;11.84;100.00
23170;BME280;11753;43.144;24.714;2022-11-21T00:18:42;98396.97;;;11.89;100.00
23170;BME280;11753;43.144;24.714;2022-11-21T00:19:46;98393.78;;;11.93;100.00
23170;BME280;11753;43.144;24.714;2022-11-21T00:20:47;98388.09;;;11.96;100.00
23170;BME280;11753;43.144;24.714;2022-11-21T00:21:48;98389.72;;;11.97;100.00
23170;BME280;11753;43.144;24.714;2022-11-21T00:22:49;98385.72;;;12.01;100.00
23170;BME280;11753;43.144;24.714;2022-11-21T00:23:50;98375.56;;;12.05;100.00
23170;BME280;11753;43.144;24.714;2022-11-21T00:24:51;98373.75;;;12.05;100.00
23170;BME280;11753;43.144;24.714;2022-11-21T00:25:52;98368.28;;;12.07;100.00
23170;BME280;11753;43.144;24.714;2022-11-21T00:26:53;98359.38;;;12.08;100.00
23170;BME280;11753;43.144;24.714;2022-11-21T00:27:54;98369.13;;;12.07;100.00
23170;BME280;11753;43.144;24.714;2022-11-21T00:28:54;98369.25;;;11.99;100.00
23170;BME280;11753;43.144;24.714;2022-11-21T00:29:55;98378.31;;;11.69;100.00
23170;BME280;11753;43.144;24.714;2022-11-21T00:30:56;98384.59;;;11.68;100.00
23170;BME280;11753;43.144;24.714;2022-11-21T00:31:56;98374.66;;;11.70;100.00
23170;BME280;11753;43.144;24.714;2022-11-21T00:32:57;98370.25;;;11.77;100.00
23170;BME280;11753;43.144;24.714;2022-11-21T00:33:58;98366.91;;;11.83;100.00
23170;BME280;11753;43.144;24.714;2022-11-21T00:34:59;98352.97;;;11.89;100.00
23170;BME280;11753;43.144;24.714;2022-11-21T00:36:09;98351.53;;;11.87;100.00
23170;BME280;11753;43.144;24.714;2022-11-21T00:37:10;98339.31;;;11.85;100.00
23170;BME280;11753;43.144;24.714;2022-11-21T00:38:10;98345.44;;;11.86;100.00
23170;BME280;11753;43.144;24.714;2022-11-21T00:39:11;98348.50;;;11.90;100.00
23170;BME280;11753;43.144;24.714;2022-11-21T00:40:11;98338.75;;;11.90;100.00
23170;BME280;11753;43.144;24.714;2022-11-21T00:41:12;98339.00;;;11.95;100.00
23170;BME280;11753;43.144;24.714;2022-11-21T00:42:13;98334.09;;;11.92;100.00
23170;BME280;11753;43.144;24.714;2022-11-21T00:43:14;98331.72;;;11.97;100.00
23170;BME280;11753;43.144;24.714;2022-11-21T00:44:15;98333.72;;;11.95;100.00
23170;BME280;11753;43.144;24.714;2022-11-21T00:45:16;98329.69;;;11.99;100.00
23170;BME280;11753;43.144;24.714;2022-11-21T00:46:17;98321.16;;;11.97;100.00
23170;BME280;11753;43.144;24.714;2022-11-21T00:47:17;98328.81;;;11.92;100.00
23170;BME280;11753;43.144;24.714;2022-11-21T00:48:18;98334.50;;;11.89;100.00
23170;BME280;11753;43.144;24.714;2022-11-21T00:49:19;98329.44;;;11.88;100.00
23170;BME280;11753;43.144;24.714;2022-11-21T00:50:20;98340.16;;;11.86;100.00
23170;BME280;11753;43.144;24.714;2022-11-21T00:51:23;98345.44;;;11.86;100.00
23170;BME280;11753;43.144;24.714;2022-11-21T00:52:23;98332.88;;;11.88;100.00
23170;BME280;11753;43.144;24.714;2022-11-21T00:53:23;98337.56;;;11.93;100.00
23170;BME280;11753;43.144;24.714;2022-11-21T00:54:24;98335.34;;;11.96;100.00
23170;BME280;11753;43.144;24.714;2022-11-21T00:55:24;98329.69;;;11.99;100.00
23170;BME280;11753;43.144;24.714;2022-11-21T00:56:24;98332.97;;;12.01;100.00
23170;BME280;11753;43.144;24.714;2022-11-21T00:57:25;98330.94;;;12.03;100.00
23170;BME280;11753;43.144;24.714;2022-11-21T00:58:25;98327.50;;;12.03;100.00
23170;BME280;11753;43.144;24.714;2022-11-21T00:59:26;98322.81;;;12.05;100.00
23170;BME280;11753;43.144;24.714;2022-11-21T01:00:26;98322.47;;;12.08;100.00
23170;BME280;11753;43.144;24.714;2022-11-21T01:01:27;98317.50;;;11.98;100.00
23170;BME280;11753;43.144;24.714;2022-11-21T01:02:27;98313.81;;;11.93;100.00
23170;BME280;11753;43.144;24.714;2022-11-21T01:03:28;98306.34;;;11.96;100.00
23170;BME280;11753;43.144;24.714;2022-11-21T01:04:32;98300.19;;;11.82;100.00
23170;BME280;11753;43.144;24.714;2022-11-21T01:05:33;98294.22;;;11.74;100.00
23170;BME280;11753;43.144;24.714;2022-11-21T01:06:35;98285.97;;;11.55;100.00
23170;BME280;11753;43.144;24.714;2022-11-21T01:07:36;98279.94;;;11.62;100.00
23170;BME280;11753;43.144;24.714;2022-11-21T01:08:37;98285.81;;;11.64;100.00
23170;BME280;11753;43.144;24.714;2022-11-21T01:09:38;98289.72;;;11.68;100.00
23170;BME280;11753;43.144;24.714;2022-11-21T01:10:39;98297.84;;;11.73;100.00
23170;BME280;11753;43.144;24.714;2022-11-21T01:11:39;98297.75;;;11.60;100.00
23170;BME280;11753;43.144;24.714;2022-11-21T01:12:40;98290.88;;;11.58;100.00
23170;BME280;11753;43.144;24.714;2022-11-21T01:13:40;98279.56;;;11.37;100.00
23170;BME280;11753;43.144;24.714;2022-11-21T01:14:41;98273.31;;;11.44;100.00
23170;BME280;11753;43.144;24.714;2022-11-21T01:15:41;98270.50;;;11.46;100.00
23170;BME280;11753;43.144;24.714;2022-11-21T01:16:41;98281.91;;;11.53;100.00
23170;BME280;11753;43.144;24.714;2022-11-21T01:17:42;98296.69;;;11.54;100.00
23170;BME280;11753;43.144;24.714;2022-11-21T01:18:42;98308.25;;;11.53;100.00
23170;BME280;11753;43.144;24.714;2022-11-21T01:19:43;98320.47;;;11.61;100.00
23170;BME280;11753;43.144;24.714;2022-11-21T01:20:44;98316.63;;;11.63;100.00
23170;BME280;11753;43.144;24.714;2022-11-21T01:21:45;98314.44;;;11.67;100.00
23170;BME280;11753;43.144;24.714;2022-11-21T01:22:45;98304.75;;;11.74;100.00
23170;BME280;11753;43.144;24.714;2022-11-21T01:23:46;98299.91;;;11.77;100.00
23170;BME280;11753;43.144;24.714;2022-11-21T01:24:47;98292.47;;;11.81;100.00
23170;BME280;11753;43.144;24.714;2022-11-21T01:25:48;98299.16;;;11.83;100.00
23170;BME280;11753;43.144;24.714;2022-11-21T01:26:49;98289.88;;;11.88;100.00
23170;BME280;11753;43.144;24.714;2022-11-21T01:27:50;98288.47;;;11.92;100.00
23170;BME280;11753;43.144;24.714;2022-11-21T01:28:51;98288.94;;;11.74;100.00
23170;BME280;11753;43.144;24.714;2022-11-21T01:29:52;98285.50;;;11.45;100.00
23170;BME280;11753;43.144;24.714;2022-11-21T01:30:53;98282.72;;;11.53;100.00
23170;BME280;11753;43.144;24.714;2022-11-21T01:31:54;98279.56;;;11.65;100.00
23170;BME280;11753;43.144;24.714;2022-11-21T01:32:54;98287.38;;;11.51;100.00
23170;BME280;11753;43.144;24.714;2022-11-21T01:33:57;98287.38;;;11.51;100.00
23170;BME280;11753;43.144;24.714;2022-11-21T01:34:58;98292.38;;;11.46;100.00
23170;BME280;11753;43.144;24.714;2022-11-21T01:36:05;98309.47;;;11.29;100.00
23170;BME280;11753;43.144;24.714;2022-11-21T01:37:06;98312.47;;;11.26;100.00
23170;BME280;11753;43.144;24.714;2022-11-21T01:38:07;98305.38;;;11.26;100.00
23170;BME280;11753;43.144;24.714;2022-11-21T01:39:09;98306.06;;;11.35;100.00
23170;BME280;11753;43.144;24.714;2022-11-21T01:40:10;98300.50;;;11.45;100.00
23170;BME280;11753;43.144;24.714;2022-11-21T01:41:12;98296.44;;;11.49;100.00
23170;BME280;11753;43.144;24.714;2022-11-21T01:42:13;98303.34;;;11.50;100.00
23170;BME280;11753;43.144;24.714;2022-11-21T01:43:14;98305.47;;;11.61;100.00
23170;BME280;11753;43.144;24.714;2022-11-21T01:46:38;98320.56;;;11.74;100.00
23170;BME280;11753;43.144;24.714;2022-11-21T01:47:38;98338.94;;;11.39;100.00
23170;BME280;11753;43.144;24.714;2022-11-21T01:48:44;98337.84;;;10.91;100.00
23170;BME280;11753;43.144;24.714;2022-11-21T01:49:45;98343.72;;;10.93;100.00
23170;BME280;11753;43.144;24.714;2022-11-21T01:50:46;98346.72;;;11.05;100.00
23170;BME280;11753;43.144;24.714;2022-11-21T01:52:48;98347.22;;;11.15;100.00
23170;BME280;11753;43.144;24.714;2022-11-21T01:53:51;98349.22;;;11.13;100.00
23170;BME280;11753;43.144;24.714;2022-11-21T01:54:54;98340.56;;;11.19;100.00
23170;BME280;11753;43.144;24.714;2022-11-21T01:55:57;98326.66;;;11.25;100.00
23170;BME280;11753;43.144;24.714;2022-11-21T01:58:01;98310.28;;;11.51;100.00
23170;BME280;11753;43.144;24.714;2022-11-21T01:59:02;98304.56;;;11.47;100.00
23170;BME280;11753;43.144;24.714;2022-11-21T02:01:06;98321.97;;;11.48;100.00
23170;BME280;11753;43.144;24.714;2022-11-21T02:02:11;98327.25;;;11.48;100.00
23170;BME280;11753;43.144;24.714;2022-11-21T02:03:14;98320.81;;;11.51;100.00
23170;BME280;11753;43.144;24.714;2022-11-21T02:04:17;98330.75;;;11.55;100.00
23170;BME280;11753;43.144;24.714;2022-11-21T02:05:20;98340.13;;;11.58;100.00
23170;BME280;11753;43.144;24.714;2022-11-21T02:06:24;98334.25;;;11.63;100.00
23170;BME280;11753;43.144;24.714;2022-11-21T02:07:25;98332.28;;;11.65;100.00
23170;BME280;11753;43.144;24.714;2022-11-21T02:08:27;98337.53;;;11.65;100.00
23170;BME280;11753;43.144;24.714;2022-11-21T02:09:29;98332.69;;;11.68;100.00
23170;BME280;11753;43.144;24.714;2022-11-21T02:10:31;98335.94;;;11.70;100.00
23170;BME280;11753;43.144;24.714;2022-11-21T02:11:54;98322.19;;;11.75;100.00
23170;BME280;11753;43.144;24.714;2022-11-21T02:12:55;98328.56;;;11.80;100.00
23170;BME280;11753;43.144;24.714;2022-11-21T02:13:58;98330.00;;;11.83;100.00
23170;BME280;11753;43.144;24.714;2022-11-21T02:14:59;98333.06;;;11.87;100.00
23170;BME280;11753;43.144;24.714;2022-11-21T02:16:00;98319.25;;;11.84;100.00
23170;BME280;11753;43.144;24.714;2022-11-21T02:17:02;98318.69;;;11.89;100.00
23170;BME280;11753;43.144;24.714;2022-11-21T02:18:10;98310.00;;;11.95;100.00
23170;BME280;11753;43.144;24.714;2022-11-21T02:19:14;98311.44;;;11.98;100.00
23170;BME280;11753;43.144;24.714;2022-11-21T02:20:20;98308.41;;;12.01;100.00
23170;BME280;11753;43.144;24.714;2022-11-21T02:24:02;98277.41;;;12.09;100.00
23170;BME280;11753;43.144;24.714;2022-11-21T02:25:13;98260.03;;;12.22;100.00
23170;BME280;11753;43.144;24.714;2022-11-21T02:26:14;98234.84;;;12.19;100.00
23170;BME280;11753;43.144;24.714;2022-11-21T02:27:15;98214.56;;;12.20;100.00
23170;BME280;11753;43.144;24.714;2022-11-21T02:28:16;98212.16;;;12.25;100.00
23170;BME280;11753;43.144;24.714;2022-11-21T02:29:18;98219.81;;;12.20;100.00
23170;BME280;11753;43.144;24.714;2022-11-21T02:30:19;98220.22;;;12.17;100.00
23170;BME280;11753;43.144;24.714;2022-11-21T02:31:20;98221.63;;;12.12;100.00
23170;BME280;11753;43.144;24.714;2022-11-21T02:32:27;98224.06;;;12.07;100.00
23170;BME280;11753;43.144;24.714;2022-11-21T02:33:32;98228.94;;;12.10;100.00
23170;BME280;11753;43.144;24.714;2022-11-21T02:34:32;98245.38;;;12.12;100.00
23170;BME280;11753;43.144;24.714;2022-11-21T02:35:33;98244.34;;;12.13;100.00
23170;BME280;11753;43.144;24.714;2022-11-21T02:36:37;98250.44;;;12.14;100.00
23170;BME280;11753;43.144;24.714;2022-11-21T02:37:39;98251.88;;;12.17;100.00
23170;BME280;11753;43.144;24.714;2022-11-21T02:38:40;98251.88;;;12.17;100.00
23170;BME280;11753;43.144;24.714;2022-11-21T02:39:41;98233.63;;;12.15;100.00
23170;BME280;11753;43.144;24.714;2022-11-21T02:40:45;98234.22;;;12.10;100.00
23170;BME280;11753;43.144;24.714;2022-11-21T02:42:15;98227.00;;;11.91;100.00
23170;BME280;11753;43.144;24.714;2022-11-21T02:44:28;98204.44;;;11.82;100.00
23170;BME280;11753;43.144;24.714;2022-11-21T02:46:34;98179.81;;;12.03;100.00
23170;BME280;11753;43.144;24.714;2022-11-21T02:47:36;98171.09;;;12.02;100.00
23170;BME280;11753;43.144;24.714;2022-11-21T02:48:37;98165.41;;;12.05;100.00
23170;BME280;11753;43.144;24.714;2022-11-21T02:49:48;98173.50;;;12.04;100.00
23170;BME280;11753;43.144;24.714;2022-11-21T02:50:51;98163.41;;;12.07;100.00
23170;BME280;11753;43.144;24.714;2022-11-21T02:51:52;98149.56;;;12.05;100.00
23170;BME280;11753;43.144;24.714;2022-11-21T02:52:53;98139.03;;;12.05;100.00
23170;BME280;11753;43.144;24.714;2022-11-21T02:53:55;98126.88;;;12.11;100.00
23170;BME280;11753;43.144;24.714;2022-11-21T02:54:56;98139.25;;;12.10;100.00
23170;BME280;11753;43.144;24.714;2022-11-21T02:55:56;98138.25;;;12.11;100.00
23170;BME280;11753;43.144;24.714;2022-11-21T02:56:57;98137.03;;;12.21;100.00
23170;BME280;11753;43.144;24.714;2022-11-21T02:57:58;98138.22;;;12.05;100.00
23170;BME280;11753;43.144;24.714;2022-11-21T02:58:58;98124.41;;;11.96;100.00
23170;BME280;11753;43.144;24.714;2022-11-21T02:59:58;98128.88;;;11.96;100.00
23170;BME280;11753;43.144;24.714;2022-11-21T03:00:59;98133.56;;;12.00;100.00
23170;BME280;11753;43.144;24.714;2022-11-21T03:01:59;98143.09;;;12.01;100.00
23170;BME280;11753;43.144;24.714;2022-11-21T03:03:00;98147.94;;;11.98;100.00
23170;BME280;11753;43.144;24.714;2022-11-21T03:04:00;98148.75;;;11.98;100.00
23170;BME280;11753;43.144;24.714;2022-11-21T03:05:01;98150.78;;;11.96;100.00
23170;BME280;11753;43.144;24.714;2022-11-21T03:06:02;98159.69;;;11.95;100.00
23170;BME280;11753;43.144;24.714;2022-11-21T03:07:02;98162.28;;;11.82;100.00
23170;BME280;11753;43.144;24.714;2022-11-21T03:08:03;98163.13;;;11.89;100.00
23170;BME280;11753;43.144;24.714;2022-11-21T03:09:03;98159.53;;;11.69;100.00
23170;BME280;11753;43.144;24.714;2022-11-21T03:10:04;98159.09;;;11.58;100.00
23170;BME280;11753;43.144;24.714;2022-11-21T03:11:05;98156.47;;;11.58;100.00
23170;BME280;11753;43.144;24.714;2022-11-21T03:12:06;98157.00;;;11.47;100.00
23170;BME280;11753;43.144;24.714;2022-11-21T03:13:07;98159.63;;;11.47;100.00
23170;BME280;11753;43.144;24.714;2022-11-21T03:14:08;98154.22;;;11.27;100.00
23170;BME280;11753;43.144;24.714;2022-11-21T03:15:10;98157.41;;;11.44;100.00
23170;BME280;11753;43.144;24.714;2022-11-21T03:16:12;98148.47;;;11.45;100.00
23170;BME280;11753;43.144;24.714;2022-11-21T03:17:13;98144.25;;;11.51;100.00
23170;BME280;11753;43.144;24.714;2022-11-21T03:18:13;98142.81;;;11.48;100.00
23170;BME280;11753;43.144;24.714;2022-11-21T03:19:14;98142.81;;;11.48;100.00
23170;BME280;11753;43.144;24.714;2022-11-21T03:20:15;98142.19;;;11.46;100.00
23170;BME280;11753;43.144;24.714;2022-11-21T03:21:16;98141.34;;;11.39;100.00
23170;BME280;11753;43.144;24.714;2022-11-21T03:22:16;98127.00;;;11.48;100.00
23170;BME280;11753;43.144;24.714;2022-11-21T03:23:17;98133.53;;;11.52;100.00
23170;BME280;11753;43.144;24.714;2022-11-21T03:24:18;98129.47;;;11.56;100.00
23170;BME280;11753;43.144;24.714;2022-11-21T03:25:19;98127.06;;;11.62;100.00
23170;BME280;11753;43.144;24.714;2022-11-21T03:26:20;98130.09;;;11.58;100.00
23170;BME280;11753;43.144;24.714;2022-11-21T03:27:21;98121.19;;;11.60;100.00
23170;BME280;11753;43.144;24.714;2022-11-21T03:28:21;98119.72;;;11.50;100.00
23170;BME280;11753;43.144;24.714;2022-11-21T03:29:22;98116.69;;;11.53;100.00
23170;BME280;11753;43.144;24.714;2022-11-21T03:30:23;98124.38;;;11.48;100.00
23170;BME280;11753;43.144;24.714;2022-11-21T03:31:25;98116.06;;;11.45;100.00
23170;BME280;11753;43.144;24.714;2022-11-21T03:32:26;98118.91;;;11.50;100.00
23170;BME280;11753;43.144;24.714;2022-11-21T03:33:27;98125.00;;;11.50;100.00
23170;BME280;11753;43.144;24.714;2022-11-21T03:34:28;98118.09;;;11.49;100.00
23170;BME280;11753;43.144;24.714;2022-11-21T03:35:28;98114.66;;;11.55;100.00
23170;BME280;11753;43.144;24.714;2022-11-21T03:36:29;98111.03;;;11.56;100.00
23170;BME280;11753;43.144;24.714;2022-11-21T03:37:30;98098.28;;;11.60;100.00
23170;BME280;11753;43.144;24.714;2022-11-21T03:38:30;98103.75;;;11.58;100.00
23170;BME280;11753;43.144;24.714;2022-11-21T03:39:31;98109.41;;;11.55;100.00
23170;BME280;11753;43.144;24.714;2022-11-21T03:40:32;98100.28;;;11.51;100.00
23170;BME280;11753;43.144;24.714;2022-11-21T03:41:33;98103.53;;;11.53;100.00
23170;BME280;11753;43.144;24.714;2022-11-21T03:42:34;98103.94;;;11.50;100.00
23170;BME280;11753;43.144;24.714;2022-11-21T03:43:35;98107.16;;;11.52;100.00
23170;BME280;11753;43.144;24.714;2022-11-21T03:44:36;98104.75;;;11.51;100.00
23170;BME280;11753;43.144;24.714;2022-11-21T03:45:36;98108.34;;;11.43;100.00
23170;BME280;11753;43.144;24.714;2022-11-21T03:46:38;98110.75;;;11.38;100.00
23170;BME280;11753;43.144;24.714;2022-11-21T03:47:40;98114.03;;;11.47;100.00
23170;BME280;11753;43.144;24.714;2022-11-21T03:48:43;98112.25;;;11.54;100.00
23170;BME280;11753;43.144;24.714;2022-11-21T03:49:44;98114.47;;;11.50;100.00
23170;BME280;11753;43.144;24.714;2022-11-21T03:50:45;98109.84;;;11.24;100.00
23170;BME280;11753;43.144;24.714;2022-11-21T03:51:46;98106.84;;;10.99;100.00
23170;BME280;11753;43.144;24.714;2022-11-21T03:52:46;98111.94;;;11.01;100.00
23170;BME280;11753;43.144;24.714;2022-11-21T03:53:47;98112.69;;;10.67;100.00
23170;BME280;11753;43.144;24.714;2022-11-21T03:54:48;98114.78;;;10.78;100.00
23170;BME280;11753;43.144;24.714;2022-11-21T03:55:48;98112.59;;;10.82;100.00
23170;BME280;11753;43.144;24.714;2022-11-21T03:56:49;98106.72;;;10.80;100.00
23170;BME280;11753;43.144;24.714;2022-11-21T03:57:50;98109.16;;;10.81;100.00
23170;BME280;11753;43.144;24.714;2022-11-21T03:58:50;98110.63;;;10.62;100.00
23170;BME280;11753;43.144;24.714;2022-11-21T03:59:51;98104.59;;;10.68;100.00
23170;BME280;11753;43.144;24.714;2022-11-21T04:00:51;98101.19;;;10.46;100.00
23170;BME280;11753;43.144;24.714;2022-11-21T04:01:52;98098.00;;;10.51;100.00
23170;BME280;11753;43.144;24.714;2022-11-21T04:02:52;98100.38;;;10.46;100.00
23170;BME280;11753;43.144;24.714;2022-11-21T04:03:53;98096.03;;;10.60;100.00
23170;BME280;11753;43.144;24.714;2022-11-21T04:04:53;98090.59;;;10.61;100.00
23170;BME280;11753;43.144;24.714;2022-11-21T04:05:53;98094.78;;;10.56;100.00
23170;BME280;11753;43.144;24.714;2022-11-21T04:06:54;98088.44;;;10.50;100.00
23170;BME280;11753;43.144;24.714;2022-11-21T04:07:54;98093.50;;;10.45;100.00
23170;BME280;11753;43.144;24.714;2022-11-21T04:08:55;98093.78;;;10.35;100.00
23170;BME280;11753;43.144;24.714;2022-11-21T04:09:56;98088.28;;;10.30;100.00
23170;BME280;11753;43.144;24.714;2022-11-21T04:10:57;98085.34;;;10.40;100.00
23170;BME280;11753;43.144;24.714;2022-11-21T04:11:57;98082.50;;;10.41;100.00
23170;BME280;11753;43.144;24.714;2022-11-21T04:12:58;98081.19;;;10.52;100.00
23170;BME280;11753;43.144;24.714;2022-11-21T04:13:59;98087.94;;;10.61;100.00
23170;BME280;11753;43.144;24.714;2022-11-21T04:15:00;98081.47;;;10.64;100.00
23170;BME280;11753;43.144;24.714;2022-11-21T04:16:00;98089.00;;;10.67;100.00
23170;BME280;11753;43.144;24.714;2022-11-21T04:17:01;98086.28;;;10.54;100.00
23170;BME280;11753;43.144;24.714;2022-11-21T04:18:02;98087.22;;;10.25;100.00
23170;BME280;11753;43.144;24.714;2022-11-21T04:19:03;98087.66;;;10.28;100.00
23170;BME280;11753;43.144;24.714;2022-11-21T04:20:04;98092.56;;;10.31;100.00
23170;BME280;11753;43.144;24.714;2022-11-21T04:21:06;98086.28;;;10.32;100.00
23170;BME280;11753;43.144;24.714;2022-11-21T04:22:07;98092.56;;;10.31;100.00
23170;BME280;11753;43.144;24.714;2022-11-21T04:23:07;98096.25;;;10.37;100.00
23170;BME280;11753;43.144;24.714;2022-11-21T04:24:08;98092.97;;;10.35;100.00
23170;BME280;11753;43.144;24.714;2022-11-21T04:25:09;98094.31;;;10.24;100.00
23170;BME280;11753;43.144;24.714;2022-11-21T04:26:10;98092.56;;;10.31;100.00
23170;BME280;11753;43.144;24.714;2022-11-21T04:27:11;98093.56;;;10.30;100.00
23170;BME280;11753;43.144;24.714;2022-11-21T04:28:12;98095.66;;;10.41;100.00
23170;BME280;11753;43.144;24.714;2022-11-21T04:29:13;98099.81;;;10.29;100.00
23170;BME280;11753;43.144;24.714;2022-11-21T04:30:14;98098.22;;;10.35;100.00
23170;BME280;11753;43.144;24.714;2022-11-21T04:31:15;98092.22;;;10.41;100.00
23170;BME280;11753;43.144;24.714;2022-11-21T04:32:16;98095.06;;;10.39;100.00
23170;BME280;11753;43.144;24.714;2022-11-21T04:33:17;98095.88;;;10.40;100.00
23170;BME280;11753;43.144;24.714;2022-11-21T04:34:18;98102.00;;;10.47;100.00
23170;BME280;11753;43.144;24.714;2022-11-21T04:35:19;98097.59;;;10.54;100.00
23170;BME280;11753;43.144;24.714;2022-11-21T04:36:20;98097.66;;;10.61;100.00
23170;BME280;11753;43.144;24.714;2022-11-21T04:37:21;98095.44;;;10.64;100.00
23170;BME280;11753;43.144;24.714;2022-11-21T04:38:21;98100.16;;;10.69;100.00
23170;BME280;11753;43.144;24.714;2022-11-21T04:39:22;98092.50;;;10.74;100.00
23170;BME280;11753;43.144;24.714;2022-11-21T04:40:23;98099.00;;;10.78;100.00
23170;BME280;11753;43.144;24.714;2022-11-21T04:41:27;98113.03;;;10.85;100.00
23170;BME280;11753;43.144;24.714;2022-11-21T04:42:27;98107.69;;;10.72;100.00
23170;BME280;11753;43.144;24.714;2022-11-21T04:43:28;98119.06;;;10.79;100.00
23170;BME280;11753;43.144;24.714;2022-11-21T04:44:29;98121.94;;;10.84;100.00
23170;BME280;11753;43.144;24.714;2022-11-21T04:45:30;98126.19;;;10.85;100.00
23170;BME280;11753;43.144;24.714;2022-11-21T04:46:31;98133.72;;;10.88;100.00
23170;BME280;11753;43.144;24.714;2022-11-21T04:47:34;98146.44;;;10.85;100.00
23170;BME280;11753;43.144;24.714;2022-11-21T04:48:35;98125.09;;;10.73;100.00
23170;BME280;11753;43.144;24.714;2022-11-21T04:49:36;98137.00;;;10.69;100.00
23170;BME280;11753;43.144;24.714;2022-11-21T04:50:36;98135.22;;;10.76;100.00
23170;BME280;11753;43.144;24.714;2022-11-21T04:51:37;98137.44;;;10.72;100.00
23170;BME280;11753;43.144;24.714;2022-11-21T04:52:38;98144.75;;;10.77;100.00
23170;BME280;11753;43.144;24.714;2022-11-21T04:53:39;98136.63;;;10.72;100.00
23170;BME280;11753;43.144;24.714;2022-11-21T04:54:40;98142.50;;;10.74;100.00
23170;BME280;11753;43.144;24.714;2022-11-21T04:55:40;98142.63;;;10.87;100.00
23170;BME280;11753;43.144;24.714;2022-11-21T04:56:41;98151.13;;;10.89;100.00
23170;BME280;11753;43.144;24.714;2022-11-21T04:57:42;98162.28;;;10.91;100.00
23170;BME280;11753;43.144;24.714;2022-11-21T04:58:43;98157.66;;;10.93;100.00
23170;BME280;11753;43.144;24.714;2022-11-21T04:59:44;98150.13;;;10.90;100.00
23170;BME280;11753;43.144;24.714;2022-11-21T05:00:44;98151.38;;;10.94;100.00
23170;BME280;11753;43.144;24.714;2022-11-21T05:01:45;98155.38;;;10.90;100.00
23170;BME280;11753;43.144;24.714;2022-11-21T05:02:46;98161.91;;;10.94;100.00
23170;BME280;11753;43.144;24.714;2022-11-21T05:03:47;98162.28;;;10.91;100.00
23170;BME280;11753;43.144;24.714;2022-11-21T05:04:48;98152.91;;;10.82;100.00
23170;BME280;11753;43.144;24.714;2022-11-21T05:05:48;98156.16;;;10.84;100.00
23170;BME280;11753;43.144;24.714;2022-11-21T05:06:49;98148.66;;;10.60;100.00
23170;BME280;11753;43.144;24.714;2022-11-21T05:07:50;98164.44;;;10.60;100.00
23170;BME280;11753;43.144;24.714;2022-11-21T05:08:51;98161.56;;;10.55;100.00
23170;BME280;11753;43.144;24.714;2022-11-21T05:09:51;98171.66;;;10.51;100.00
23170;BME280;11753;43.144;24.714;2022-11-21T05:10:52;98160.25;;;10.44;100.00
23170;BME280;11753;43.144;24.714;2022-11-21T05:12:11;98172.34;;;10.38;100.00
23170;BME280;11753;43.144;24.714;2022-11-21T05:13:30;98167.44;;;10.35;100.00
23170;BME280;11753;43.144;24.714;2022-11-21T05:14:31;98175.91;;;10.31;100.00
23170;BME280;11753;43.144;24.714;2022-11-21T05:15:32;98171.88;;;10.35;100.00
23170;BME280;11753;43.144;24.714;2022-11-21T05:16:33;98168.25;;;10.21;100.00
23170;BME280;11753;43.144;24.714;2022-11-21T05:17:34;98161.94;;;10.15;100.00
23170;BME280;11753;43.144;24.714;2022-11-21T05:18:35;98176.09;;;10.14;100.00
23170;BME280;11753;43.144;24.714;2022-11-21T05:19:35;98177.66;;;10.09;100.00
23170;BME280;11753;43.144;24.714;2022-11-21T05:20:36;98178.00;;;10.06;100.00
23170;BME280;11753;43.144;24.714;2022-11-21T05:21:37;98178.66;;;10.08;100.00
23170;BME280;11753;43.144;24.714;2022-11-21T05:22:38;98182.44;;;10.05;100.00
23170;BME280;11753;43.144;24.714;2022-11-21T05:23:38;98180.91;;;10.11;100.00
23170;BME280;11753;43.144;24.714;2022-11-21T05:24:39;98181.38;;;10.14;100.00
23170;BME280;11753;43.144;24.714;2022-11-21T05:25:40;98188.59;;;10.12;100.00
23170;BME280;11753;43.144;24.714;2022-11-21T05:26:41;98182.91;;;10.09;100.00
23170;BME280;11753;43.144;24.714;2022-11-21T05:27:41;98177.28;;;10.12;100.00